Time;durP1;ratioP1;P1;durP2;ratioP2;P2;SDS_P1;SDS_P2;PMS_P1;PMS_P2;Temp;Humidity;BMP_temperature;BMP_pressure;BME280_temperature;BME280_humidity;BME280_pressure;Samples;Min_cycle;Max_cycle;Signal;HPM_P1;HPM_P2
2022/06/15 00:00:20;;;;;;;15.70;11.27;;;13.30;1.00;;;;;;5138905;27;20569;-61
2022/06/15 00:02:47;;;;;;;13.00;11.90;;;13.30;99.90;;;;;;5140905;27;20553;-61
2022/06/15 00:05:15;;;;;;;12.70;10.60;;;13.30;99.90;;;;;;5134625;27;20459;-61
2022/06/15 00:07:42;;;;;;;13.50;11.87;;;13.10;99.90;;;;;;5120996;27;20896;-61
2022/06/15 00:10:17;;;;;;;13.40;11.67;;;13.10;99.90;;;;;;5120113;28;20464;-61
2022/06/15 00:12:44;;;;;;;12.70;11.37;;;13.10;99.90;;;;;;5127281;27;20458;-61
2022/06/15 00:15:17;;;;;;;12.00;10.90;;;13.00;99.90;;;;;;5139900;27;20463;-60
2022/06/15 00:17:47;;;;;;;12.63;11.47;;;13.00;1.00;;;;;;5138304;27;20494;-61
2022/06/15 00:20:18;;;;;;;12.43;11.33;;;13.00;1.00;;;;;;5139687;27;20465;-61
2022/06/15 00:22:45;;;;;;;14.73;10.83;;;13.00;1.00;;;;;;5136472;27;20456;-61
2022/06/15 00:25:13;;;;;;;13.57;10.03;;;12.90;1.00;;;;;;5138807;27;20978;-61
2022/06/15 00:27:47;;;;;;;12.00;10.50;;;12.90;1.00;;;;;;5138398;27;20942;-61
2022/06/15 00:30:14;;;;;;;12.50;11.17;;;12.90;1.00;;;;;;5139867;27;20545;-61
2022/06/15 00:32:41;;;;;;;12.83;11.63;;;12.90;1.00;;;;;;5140385;27;20515;-61
2022/06/15 00:35:10;;;;;;;11.73;10.53;;;12.80;1.00;;;;;;5121274;27;20460;-61
2022/06/15 00:37:38;;;;;;;14.13;11.50;;;12.70;1.00;;;;;;5120503;27;20512;-61
2022/06/15 00:40:10;;;;;;;15.20;10.60;;;12.60;1.00;;;;;;5119718;28;20460;-61
2022/06/15 00:42:40;;;;;;;10.97;10.00;;;12.70;1.00;;;;;;5119661;28;20732;-61
2022/06/15 00:45:08;;;;;;;17.23;10.70;;;12.70;1.00;;;;;;5134110;27;20466;-61
2022/06/15 00:47:39;;;;;;;11.77;10.60;;;12.70;1.00;;;;;;5139853;27;20899;-61
2022/06/15 00:50:15;;;;;;;11.23;10.13;;;12.60;1.00;;;;;;5119147;28;20931;-61
2022/06/15 00:52:54;;;;;;;12.30;11.20;;;12.50;1.00;;;;;;5119402;28;20499;-61
2022/06/15 00:55:26;;;;;;;13.40;10.63;;;12.40;1.00;;;;;;5118234;28;20458;-61
2022/06/15 00:57:55;;;;;;;13.47;10.53;;;12.30;1.00;;;;;;5119191;27;20475;-61
2022/06/15 01:00:27;;;;;;;11.93;10.63;;;12.30;1.00;;;;;;5118538;28;20521;-61
2022/06/15 01:02:57;;;;;;;12.17;10.93;;;12.30;1.00;;;;;;5119156;28;20815;-61
2022/06/15 01:05:31;;;;;;;11.63;10.40;;;12.30;1.00;;;;;;5120023;27;20464;-61
2022/06/15 01:08:23;;;;;;;12.33;10.87;;;12.30;1.00;;;;;;5120043;27;20458;-61
2022/06/15 01:11:16;;;;;;;11.33;10.27;;;12.30;1.00;;;;;;5119319;28;20892;-61
2022/06/15 01:14:06;;;;;;;11.27;10.00;;;12.20;1.00;;;;;;5115404;28;20561;-61
2022/06/15 01:16:50;;;;;;;12.90;10.60;;;12.10;1.00;;;;;;5133839;27;20459;-61
2022/06/15 01:19:51;;;;;;;11.80;10.60;;;12.00;1.00;;;;;;5136971;27;20440;-60
2022/06/15 01:22:47;;;;;;;11.93;9.63;;;12.00;1.00;;;;;;5118556;28;20578;-61
2022/06/15 01:25:37;;;;;;;11.77;9.57;;;12.00;1.00;;;;;;5099253;27;20463;-61
2022/06/15 01:28:30;;;;;;;12.83;10.23;;;12.00;1.00;;;;;;5138951;27;20459;-60
2022/06/15 01:31:07;;;;;;;13.97;9.87;;;12.00;1.00;;;;;;5131268;27;20464;-59
2022/06/15 01:33:42;;;;;;;11.50;9.27;;;11.90;1.00;;;;;;5118614;28;20734;-59
2022/06/15 01:36:22;;;;;;;10.87;9.57;;;11.80;1.00;;;;;;5132517;27;20465;-59
2022/06/15 01:39:05;;;;;;;9.60;8.60;;;11.80;1.00;;;;;;5139347;27;20451;-59
2022/06/15 01:41:36;;;;;;;9.00;8.10;;;11.80;1.00;;;;;;5129871;27;20472;-59
2022/06/15 01:44:12;;;;;;;8.87;7.97;;;11.70;1.00;;;;;;5118281;28;20517;-59
2022/06/15 01:46:48;;;;;;;10.20;9.07;;;11.70;1.00;;;;;;5118852;27;20951;-59
2022/06/15 01:49:22;;;;;;;9.40;8.03;;;11.60;1.00;;;;;;5117924;28;20499;-59
2022/06/15 01:51:51;;;;;;;8.90;8.00;;;11.60;1.00;;;;;;5126437;27;20454;-59
2022/06/15 01:54:27;;;;;;;11.13;8.60;;;11.60;1.00;;;;;;5138626;27;20459;-58
2022/06/15 01:56:58;;;;;;;10.23;8.57;;;11.60;1.00;;;;;;5138077;27;20467;-59
2022/06/15 01:59:29;;;;;;;10.07;9.10;;;11.60;1.00;;;;;;5138150;27;20497;-58
2022/06/15 02:02:06;;;;;;;13.87;9.20;;;11.50;1.00;;;;;;5129984;27;20460;-59
2022/06/15 02:04:45;;;;;;;9.57;8.33;;;11.50;1.00;;;;;;5118097;28;20459;-59
2022/06/15 02:07:30;;;;;;;9.43;8.40;;;11.40;1.00;;;;;;5118850;27;20809;-59
2022/06/15 02:10:01;;;;;;;9.83;8.90;;;11.30;1.00;;;;;;5117779;28;20786;-59
2022/06/15 02:12:37;;;;;;;8.63;7.83;;;11.30;1.00;;;;;;5125708;27;20940;-59
2022/06/15 02:15:07;;;;;;;8.93;7.90;;;11.20;1.00;;;;;;5138471;27;20822;-59
2022/06/15 02:17:41;;;;;;;10.43;8.80;;;11.20;1.00;;;;;;5137371;27;20891;-60
2022/06/15 02:20:14;;;;;;;9.50;8.43;;;11.20;1.00;;;;;;5138271;27;20425;-59
2022/06/15 02:22:45;;;;;;;11.67;9.07;;;11.20;1.00;;;;;;5131487;27;20518;-59
2022/06/15 02:25:20;;;;;;;10.57;9.40;;;11.20;1.00;;;;;;5117158;28;20460;-59
2022/06/15 02:27:52;;;;;;;11.30;8.33;;;11.10;1.00;;;;;;5118507;28;20760;-59
2022/06/15 02:30:22;;;;;;;11.67;8.53;;;11.10;1.00;;;;;;5117791;28;20491;-59
2022/06/15 02:32:52;;;;;;;10.30;8.57;;;11.20;1.00;;;;;;5120034;28;20461;-60
2022/06/15 02:35:23;;;;;;;9.67;8.77;;;11.20;1.00;;;;;;5137947;28;20759;-59
2022/06/15 02:37:51;;;;;;;10.03;7.47;;;11.10;1.00;;;;;;5135704;28;20466;-59
2022/06/15 02:40:21;;;;;;;9.53;8.53;;;11.10;1.00;;;;;;5138158;27;20460;-59
2022/06/15 02:42:51;;;;;;;12.47;8.50;;;11.00;1.00;;;;;;5137982;28;20462;-60
2022/06/15 02:45:22;;;;;;;8.93;8.10;;;11.00;1.00;;;;;;5136073;28;20570;-60
2022/06/15 02:47:54;;;;;;;8.13;7.33;;;10.90;1.00;;;;;;5135544;28;20458;-59
2022/06/15 02:50:26;;;;;;;10.67;9.13;;;11.00;1.00;;;;;;5137963;27;20782;-60
2022/06/15 02:53:00;;;;;;;12.53;8.50;;;11.00;1.00;;;;;;5138023;28;20487;-60
2022/06/15 02:55:28;;;;;;;8.90;8.07;;;10.90;1.00;;;;;;5119441;27;20471;-59
2022/06/15 02:58:05;;;;;;;8.90;8.00;;;10.80;1.00;;;;;;5118601;27;20761;-59
2022/06/15 03:00:33;;;;;;;9.43;8.53;;;10.80;1.00;;;;;;5122165;28;20462;-60
2022/06/15 03:03:01;;;;;;;10.70;9.70;;;10.80;1.00;;;;;;5121034;28;20747;-60
2022/06/15 03:05:28;;;;;;;12.70;8.70;;;10.80;1.00;;;;;;5122198;27;20769;-60
2022/06/15 03:07:58;;;;;;;9.73;8.73;;;10.90;1.00;;;;;;5121351;28;20472;-60
2022/06/15 03:10:26;;;;;;;9.53;8.53;;;10.90;1.00;;;;;;5122189;27;20483;-61
2022/06/15 03:12:58;;;;;;;12.20;9.93;;;10.90;1.00;;;;;;5121327;28;20780;-61
2022/06/15 03:15:25;;;;;;;9.60;8.30;;;10.90;1.00;;;;;;5121675;27;20824;-60
2022/06/15 03:17:53;;;;;;;10.67;9.50;;;10.90;1.00;;;;;;5120650;28;20470;-60
2022/06/15 03:20:22;;;;;;;9.67;8.73;;;10.80;1.00;;;;;;5121452;27;20499;-60
2022/06/15 03:22:49;;;;;;;8.80;8.00;;;10.80;1.00;;;;;;5121106;28;20459;-61
2022/06/15 03:25:17;;;;;;;9.23;8.37;;;10.80;1.00;;;;;;5124867;27;20549;-60
2022/06/15 03:27:44;;;;;;;9.60;8.60;;;10.80;1.00;;;;;;5141218;27;20458;-61
2022/06/15 03:30:11;;;;;;;9.37;8.37;;;10.80;1.00;;;;;;5140863;27;20493;-60
2022/06/15 03:32:39;;;;;;;9.43;8.40;;;10.80;1.00;;;;;;5141501;27;20463;-60
2022/06/15 03:35:07;;;;;;;10.37;9.00;;;10.70;1.00;;;;;;5141177;27;20764;-59
2022/06/15 03:37:35;;;;;;;13.30;10.00;;;10.70;1.00;;;;;;5120958;27;20497;-61
2022/06/15 03:40:08;;;;;;;13.30;9.67;;;10.70;1.00;;;;;;5124477;27;20756;-60
2022/06/15 03:42:36;;;;;;;10.87;9.77;;;10.70;1.00;;;;;;5141392;27;20463;-60
2022/06/15 03:45:04;;;;;;;10.17;9.17;;;10.70;1.00;;;;;;5141409;27;20879;-61
2022/06/15 03:47:31;;;;;;;9.23;8.30;;;10.70;1.00;;;;;;5125008;27;20911;-60
2022/06/15 03:49:58;;;;;;;11.77;10.40;;;10.70;1.00;;;;;;5120875;28;20494;-60
2022/06/15 03:52:27;;;;;;;12.50;9.87;;;10.70;1.00;;;;;;5139287;27;20481;-61
2022/06/15 03:54:58;;;;;;;10.30;9.00;;;10.80;1.00;;;;;;5141080;27;20470;-61
2022/06/15 03:57:25;;;;;;;16.50;9.27;;;10.80;1.00;;;;;;5129156;27;20525;-60
2022/06/15 03:59:52;;;;;;;13.03;9.30;;;10.80;1.00;;;;;;5120085;28;20461;-60
2022/06/15 04:02:19;;;;;;;10.77;9.50;;;10.80;1.00;;;;;;5121335;27;20566;-61
2022/06/15 04:04:48;;;;;;;9.70;8.73;;;10.90;1.00;;;;;;5119765;28;20459;-60
2022/06/15 04:10:01;;;;;;;10.80;9.80;;;11.00;1.00;;;;;;5139501;27;20937;-60
2022/06/15 04:12:28;;;;;;;10.87;9.80;;;11.00;1.00;;;;;;5140578;27;20463;-60
2022/06/15 04:14:55;;;;;;;13.53;10.00;;;11.00;1.00;;;;;;5140669;27;20458;-60
2022/06/15 04:17:22;;;;;;;17.10;12.07;;;11.10;1.00;;;;;;5137085;27;20918;-61
2022/06/15 04:22:30;;;;;;;12.27;10.17;;;11.20;1.00;;;;;;5139670;27;20473;-60
2022/06/15 04:24:57;;;;;;;11.40;10.30;;;11.30;1.00;;;;;;5140550;27;20458;-60
2022/06/15 04:27:26;;;;;;;12.20;11.00;;;11.30;1.00;;;;;;5128400;27;20463;-60
2022/06/15 04:29:53;;;;;;;13.27;10.87;;;11.40;1.00;;;;;;5123430;27;20577;-60
2022/06/15 04:32:24;;;;;;;14.57;11.50;;;11.40;1.00;;;;;;5140776;27;20539;-60
2022/06/15 04:34:53;;;;;;;11.80;10.70;;;11.40;1.00;;;;;;5138302;27;20460;-60
2022/06/15 04:37:23;;;;;;;13.77;11.23;;;11.50;1.00;;;;;;5140368;27;20459;-60
2022/06/15 04:39:52;;;;;;;13.07;11.07;;;11.60;1.00;;;;;;5139559;27;20454;-60
2022/06/15 04:42:22;;;;;;;14.43;11.37;;;11.60;1.00;;;;;;5119062;28;20513;-59
2022/06/15 04:44:51;;;;;;;11.53;10.43;;;11.70;1.00;;;;;;5119542;28;20451;-60
2022/06/15 04:47:18;;;;;;;12.90;11.53;;;11.80;1.00;;;;;;5130292;27;20465;-60
2022/06/15 04:49:45;;;;;;;13.53;10.97;;;11.90;1.00;;;;;;5139334;27;20464;-60
2022/06/15 04:52:13;;;;;;;19.53;11.03;;;11.90;1.00;;;;;;5138823;27;20467;-60
2022/06/15 04:54:43;;;;;;;13.03;11.20;;;12.00;1.00;;;;;;5139826;27;20474;-59
2022/06/15 04:57:10;;;;;;;16.63;11.90;;;12.10;1.00;;;;;;5140279;27;20454;-60
2022/06/15 04:59:37;;;;;;;17.30;11.80;;;12.20;1.00;;;;;;5139551;27;20474;-59
2022/06/15 05:02:05;;;;;;;13.87;12.03;;;12.30;1.00;;;;;;5128583;27;20478;-59
2022/06/15 05:04:34;;;;;;;15.00;12.53;;;12.40;1.00;;;;;;5119220;28;20463;-60
2022/06/15 05:07:01;;;;;;;12.87;11.20;;;12.50;1.00;;;;;;5126582;27;20549;-58
2022/06/15 05:09:28;;;;;;;14.60;11.70;;;12.50;1.00;;;;;;5137721;27;20481;-60
2022/06/15 05:11:55;;;;;;;14.80;11.47;;;12.60;1.00;;;;;;5134704;27;20472;-59
2022/06/15 05:14:30;;;;;;;12.90;11.10;;;12.70;1.00;;;;;;5138727;27;20459;-60
2022/06/15 05:16:57;;;;;;;13.77;10.70;;;12.80;1.00;;;;;;5127085;27;20760;-60
2022/06/15 05:19:26;;;;;;;13.27;11.77;;;12.80;1.00;;;;;;5117283;28;20899;-59
2022/06/15 05:21:53;;;;;;;14.37;12.20;;;13.00;1.00;;;;;;5117934;27;20573;-60
2022/06/15 05:24:20;;;;;;;13.43;11.50;;;13.10;1.00;;;;;;5117478;27;20470;-60
2022/06/15 05:26:47;;;;;;;14.63;10.77;;;13.20;1.00;;;;;;5119478;27;20455;-59
2022/06/15 05:29:17;;;;;;;13.93;12.33;;;13.30;1.00;;;;;;5118383;28;20879;-60
2022/06/15 05:31:44;;;;;;;12.43;11.13;;;13.40;1.00;;;;;;5118274;28;20498;-60
2022/06/15 05:34:11;;;;;;;13.50;12.00;;;13.50;1.00;;;;;;5134964;27;20459;-59
2022/06/15 05:36:43;;;;;;;15.70;10.60;;;13.60;1.00;;;;;;5138537;27;20462;-61
2022/06/15 05:39:11;;;;;;;16.90;12.13;;;13.80;1.00;;;;;;5138601;27;20462;-61
2022/06/15 05:41:38;;;;;;;12.87;11.70;;;14.10;1.00;;;;;;5138249;27;20458;-61
2022/06/15 05:44:08;;;;;;;14.60;10.13;;;14.30;1.00;;;;;;5125244;27;20472;-61
2022/06/15 05:46:36;;;;;;;12.50;11.20;;;14.60;1.00;;;;;;5118401;28;20714;-62
2022/06/15 05:49:04;;;;;;;14.37;10.33;;;14.90;1.00;;;;;;5118282;28;20459;-62
2022/06/15 05:51:31;;;;;;;16.03;11.30;;;15.20;1.00;;;;;;5122837;27;20833;-61
2022/06/15 05:54:05;;;;;;;10.23;9.27;;;15.60;99.90;;;;;;5137534;27;20805;-62
2022/06/15 05:56:34;;;;;;;10.80;9.70;;;15.90;99.90;;;;;;5136613;27;20982;-61
2022/06/15 05:59:01;;;;;;;12.43;10.93;;;16.10;99.90;;;;;;5139093;27;20545;-62
2022/06/15 06:01:30;;;;;;;16.53;11.00;;;16.40;99.90;;;;;;5135402;27;20523;-63
2022/06/15 06:03:58;;;;;;;12.63;10.37;;;16.70;99.90;;;;;;5118009;28;20463;-63
2022/06/15 06:06:26;;;;;;;11.63;9.83;;;17.10;99.90;;;;;;5118291;27;20907;-63
2022/06/15 06:08:56;;;;;;;12.87;10.03;;;17.40;99.90;;;;;;5122503;27;20843;-64
2022/06/15 06:11:25;;;;;;;12.77;9.60;;;17.70;99.90;;;;;;5134547;27;20497;-63
2022/06/15 06:13:55;;;;;;;11.90;9.40;;;17.90;99.90;;;;;;5135739;27;20511;-63
2022/06/15 06:16:23;;;;;;;10.00;9.00;;;18.20;99.90;;;;;;5137171;27;20457;-63
2022/06/15 06:18:51;;;;;;;10.10;9.10;;;18.60;99.90;;;;;;5137520;27;20466;-63
2022/06/15 06:21:18;;;;;;;9.33;8.43;;;18.90;99.90;;;;;;5135450;27;20816;-63
2022/06/15 06:23:46;;;;;;;9.03;8.13;;;19.30;99.90;;;;;;5133894;27;20451;-63
2022/06/15 06:26:28;;;;;;;11.20;8.40;;;19.60;99.90;;;;;;5134908;27;20561;-63
2022/06/15 06:28:57;;;;;;;13.63;8.40;;;19.90;99.90;;;;;;5137092;27;20465;-63
2022/06/15 06:31:24;;;;;;;7.80;7.10;;;20.30;99.90;;;;;;5135089;28;20780;-64
2022/06/15 06:33:59;;;;;;;8.57;7.50;;;20.30;99.90;;;;;;5125194;27;20475;-63
2022/06/15 06:36:32;;;;;;;9.43;8.30;;;20.50;99.90;;;;;;5114774;28;20585;-63
2022/06/15 06:39:01;;;;;;;9.23;8.20;;;20.70;99.90;;;;;;5114932;28;20768;-64
2022/06/15 06:41:30;;;;;;;8.80;7.00;;;20.90;99.90;;;;;;5115825;28;20459;-64
2022/06/15 06:43:59;;;;;;;9.87;7.37;;;21.10;99.90;;;;;;5121714;28;20462;-63
2022/06/15 06:46:27;;;;;;;8.03;7.00;;;21.20;99.90;;;;;;5137134;28;20760;-63
2022/06/15 06:48:59;;;;;;;10.13;6.93;;;21.40;99.90;;;;;;5136781;28;20586;-63
2022/06/15 06:51:29;;;;;;;7.90;6.73;;;21.70;99.90;;;;;;5136371;28;20465;-64
2022/06/15 06:53:56;;;;;;;7.80;6.80;;;21.70;99.90;;;;;;5132161;28;20467;-63
2022/06/15 06:56:26;;;;;;;9.67;7.27;;;21.70;99.90;;;;;;5116128;28;20512;-63
2022/06/15 06:58:53;;;;;;;8.07;6.33;;;22.10;99.90;;;;;;5116443;28;20462;-63
2022/06/15 07:01:23;;;;;;;10.67;7.43;;;22.50;99.90;;;;;;5116423;28;20764;-63
2022/06/15 07:03:50;;;;;;;11.50;7.77;;;22.90;99.90;;;;;;5116467;28;20455;-63
2022/06/15 07:06:19;;;;;;;7.40;6.57;;;23.20;99.90;;;;;;5136045;28;20481;-64
2022/06/15 07:08:46;;;;;;;10.33;5.80;;;23.50;99.90;;;;;;5137183;28;20463;-63
2022/06/15 07:11:17;;;;;;;8.27;6.30;;;23.60;99.90;;;;;;5137575;28;20563;-64
2022/06/15 07:13:45;;;;;;;7.77;6.40;;;23.90;99.90;;;;;;5136352;28;20455;-63
2022/06/15 07:16:16;;;;;;;7.90;6.43;;;24.10;99.90;;;;;;5125201;28;20465;-63
2022/06/15 07:18:46;;;;;;;6.33;5.47;;;24.30;99.90;;;;;;5137555;28;20459;-63
2022/06/15 07:21:17;;;;;;;6.63;5.27;;;24.60;99.90;;;;;;5116656;28;20475;-63
2022/06/15 07:23:46;;;;;;;8.00;4.90;;;24.80;99.90;;;;;;5116894;28;20467;-64
2022/06/15 07:26:23;;;;;;;5.50;4.10;;;24.70;99.90;;;;;;5127246;28;20490;-64
2022/06/15 07:28:50;;;;;;;6.73;3.93;;;24.60;99.90;;;;;;5137775;28;20466;-63
2022/06/15 07:31:24;;;;;;;4.43;3.97;;;24.50;99.90;;;;;;5136165;27;20486;-64
2022/06/15 07:33:53;;;;;;;6.10;4.60;;;24.10;99.90;;;;;;5137561;28;20771;-64
2022/06/15 07:36:23;;;;;;;8.97;4.80;;;24.30;99.90;;;;;;5135722;27;20952;-63
2022/06/15 07:38:50;;;;;;;5.37;4.20;;;24.50;99.90;;;;;;5138005;27;20458;-64
2022/06/15 07:41:17;;;;;;;6.40;4.27;;;24.80;99.90;;;;;;5136620;28;20455;-64
2022/06/15 07:43:45;;;;;;;4.73;3.87;;;25.20;99.90;;;;;;5136947;28;20459;-64
2022/06/15 07:46:12;;;;;;;4.57;3.93;;;25.30;99.90;;;;;;5135896;27;20467;-64
2022/06/15 07:51:30;;;;;;;4.43;3.90;;;26.10;99.90;;;;;;5138755;27;20969;-64
2022/06/15 07:53:57;;;;;;;5.67;3.90;;;25.60;99.90;;;;;;5140733;27;20967;-64
2022/06/15 07:56:28;;;;;;;3.97;3.57;;;26.00;99.90;;;;;;5139730;27;20466;-65
2022/06/15 07:58:55;;;;;;;6.00;4.20;;;26.10;99.90;;;;;;5120474;28;20463;-64
2022/06/15 08:01:24;;;;;;;5.20;4.33;;;26.30;99.90;;;;;;5119781;27;20459;-64
2022/06/15 08:03:52;;;;;;;4.20;3.83;;;26.50;99.90;;;;;;5120708;28;20456;-61
2022/06/15 08:06:22;;;;;;;5.27;4.00;;;26.80;99.90;;;;;;5120141;28;20459;-62
2022/06/15 08:08:51;;;;;;;4.70;3.60;;;26.90;99.90;;;;;;5137178;27;20462;-61
2022/06/15 08:11:20;;;;;;;6.60;4.83;;;26.90;99.90;;;;;;5138420;27;20491;-61
2022/06/15 08:13:48;;;;;;;5.27;3.73;;;27.10;99.90;;;;;;5140641;27;20911;-62
2022/06/15 08:16:16;;;;;;;4.60;3.93;;;27.10;99.90;;;;;;5140013;27;20466;-61
2022/06/15 08:18:48;;;;;;;7.33;3.93;;;27.30;99.90;;;;;;5127381;27;20547;-63
2022/06/15 08:21:19;;;;;;;8.73;4.03;;;27.30;99.90;;;;;;5120533;27;20503;-63
2022/06/15 08:23:50;;;;;;;6.30;4.07;;;27.50;99.90;;;;;;5119860;28;20876;-61
2022/06/15 08:26:26;;;;;;;5.90;4.20;;;27.20;99.90;;;;;;5131060;27;20507;-61
2022/06/15 08:29:00;;;;;;;6.40;4.00;;;27.40;99.90;;;;;;5125285;27;20481;-61
2022/06/15 08:31:28;;;;;;;6.00;4.70;;;27.70;99.90;;;;;;5130501;27;20491;-62
2022/06/15 08:33:55;;;;;;;8.93;5.77;;;27.30;99.90;;;;;;5140052;27;20458;-62
2022/06/15 08:36:22;;;;;;;5.80;4.50;;;27.70;99.90;;;;;;5130659;27;20471;-61
2022/06/15 08:38:50;;;;;;;6.10;4.10;;;28.00;99.90;;;;;;5119703;28;20464;-61
2022/06/15 08:41:30;;;;;;;5.07;3.97;;;28.20;99.90;;;;;;5119274;27;20472;-62
2022/06/15 08:44:10;;;;;;;5.67;3.97;;;28.20;99.90;;;;;;5119546;28;20470;-62
2022/06/15 08:46:49;;;;;;;8.47;4.53;;;27.20;99.90;;;;;;5125211;27;20552;-62
2022/06/15 08:49:31;;;;;;;6.00;3.30;;;26.70;99.90;;;;;;5139662;27;20526;-62
2022/06/15 08:52:02;;;;;;;4.17;3.67;;;26.50;99.90;;;;;;5137910;27;20889;-61
2022/06/15 08:54:31;;;;;;;5.13;3.90;;;27.20;99.90;;;;;;5139947;27;20463;-61
2022/06/15 08:57:08;;;;;;;4.60;3.63;;;27.90;99.90;;;;;;5137152;27;20907;-62
2022/06/15 08:59:41;;;;;;;4.33;3.17;;;27.90;99.90;;;;;;5139523;27;20522;-61
2022/06/15 09:02:15;;;;;;;4.23;3.83;;;28.00;99.90;;;;;;5139467;27;20459;-62
2022/06/15 09:04:55;;;;;;;4.43;4.03;;;27.90;99.90;;;;;;5139548;27;20471;-62
2022/06/15 09:07:35;;;;;;;4.27;3.37;;;28.00;99.90;;;;;;5137462;27;20486;-61
2022/06/15 09:10:17;;;;;;;5.50;4.30;;;28.20;99.90;;;;;;5138958;27;20458;-62
2022/06/15 09:12:59;;;;;;;4.60;4.20;;;28.50;99.90;;;;;;5124256;27;20493;-62
2022/06/15 09:15:38;;;;;;;7.83;3.87;;;28.80;99.90;;;;;;5138385;27;20458;-62
2022/06/15 09:18:11;;;;;;;7.00;4.50;;;29.10;99.90;;;;;;5131339;27;20455;-62
2022/06/15 09:20:44;;;;;;;5.87;4.43;;;29.30;99.90;;;;;;5117482;28;20487;-62
2022/06/15 09:23:20;;;;;;;5.90;4.43;;;29.30;99.90;;;;;;5127683;27;20459;-61
2022/06/15 09:25:52;;;;;;;8.47;4.30;;;29.30;99.90;;;;;;5137813;27;20762;-62
2022/06/15 09:28:27;;;;;;;5.43;3.57;;;29.60;99.90;;;;;;5138045;27;20459;-62
2022/06/15 09:30:58;;;;;;;5.57;3.87;;;29.90;99.90;;;;;;5139178;27;20488;-61
2022/06/15 09:33:32;;;;;;;5.83;4.23;;;30.00;99.90;;;;;;5132300;27;20463;-61
2022/06/15 09:36:09;;;;;;;9.20;3.90;;;30.00;99.90;;;;;;5118366;28;20502;-62
2022/06/15 09:38:38;;;;;;;6.53;4.20;;;30.10;99.90;;;;;;5136013;27;20454;-62
2022/06/15 09:41:15;;;;;;;7.03;4.60;;;30.20;99.90;;;;;;5137703;27;20522;-62
2022/06/15 09:43:57;;;;;;;6.60;4.13;;;29.90;99.90;;;;;;5132401;27;20508;-62
2022/06/15 09:46:34;;;;;;;5.17;4.53;;;30.00;99.90;;;;;;5117628;28;20463;-62
2022/06/15 09:49:24;;;;;;;4.83;4.20;;;30.40;99.90;;;;;;5119258;27;20906;-61
2022/06/15 09:52:10;;;;;;;6.40;4.20;;;30.50;99.90;;;;;;5118362;28;20539;-61
2022/06/15 09:54:50;;;;;;;5.03;4.33;;;30.60;99.90;;;;;;5126678;27;20461;-62
2022/06/15 09:57:21;;;;;;;4.57;4.03;;;30.70;99.90;;;;;;5136673;27;20908;-62
2022/06/15 09:59:50;;;;;;;5.73;4.60;;;30.50;99.90;;;;;;5134691;27;20464;-62
2022/06/15 10:02:23;;;;;;;5.40;3.80;;;30.60;99.90;;;;;;5121831;27;20770;-60
2022/06/15 10:04:50;;;;;;;4.70;3.63;;;30.20;99.90;;;;;;5125933;27;20919;-61
2022/06/15 10:07:28;;;;;;;4.30;3.53;;;30.20;99.90;;;;;;5118518;27;20964;-62
2022/06/15 10:10:01;;;;;;;5.70;4.30;;;30.20;99.90;;;;;;5133980;27;20461;-61
2022/06/15 10:12:59;;;;;;;4.90;4.07;;;30.20;99.90;;;;;;5134042;27;21355;-62
2022/06/15 10:15:50;;;;;;;5.03;3.60;;;30.70;99.90;;;;;;5133009;27;20566;-62
2022/06/15 10:18:31;;;;;;;7.40;4.27;;;30.90;99.90;;;;;;5131819;27;20934;-62
2022/06/15 10:21:05;;;;;;;5.70;4.20;;;30.90;99.90;;;;;;5133524;27;20481;-61
2022/06/15 10:23:41;;;;;;;4.53;4.07;;;31.40;99.90;;;;;;5136018;27;20450;-61
2022/06/15 10:26:25;;;;;;;4.47;4.07;;;31.40;99.90;;;;;;5132670;27;20458;-61
2022/06/15 10:28:56;;;;;;;3.90;3.50;;;31.30;99.90;;;;;;5133419;27;20526;-61
2022/06/15 10:31:30;;;;;;;10.73;4.13;;;31.60;99.90;;;;;;5134158;28;20492;-61
2022/06/15 10:33:58;;;;;;;6.37;4.10;;;31.80;99.90;;;;;;5136613;28;20854;-62
2022/06/15 10:36:31;;;;;;;4.67;3.53;;;31.60;99.90;;;;;;5135206;28;20468;-61
2022/06/15 10:39:03;;;;;;;5.13;3.77;;;31.60;99.90;;;;;;5136206;27;20915;-61
2022/06/15 10:41:46;;;;;;;7.30;3.70;;;31.70;99.90;;;;;;5130281;28;20458;-61
2022/06/15 10:44:28;;;;;;;5.47;3.90;;;32.00;99.90;;;;;;5117351;28;20828;-61
2022/06/15 10:47:00;;;;;;;5.60;3.43;;;32.10;99.90;;;;;;5117507;28;20463;-61
2022/06/15 10:49:29;;;;;;;5.03;3.70;;;32.20;99.90;;;;;;5118193;28;20462;-60
2022/06/15 10:52:00;;;;;;;3.90;3.20;;;32.10;99.90;;;;;;5134303;28;20841;-61
2022/06/15 11:02:06;;;;;;;5.50;3.40;;;32.30;99.90;;;;;;5121064;28;20512;-61
2022/06/15 11:03:21;;;;;;;7.17;3.63;;;32.20;99.90;;;;;;5127867;28;20463;-61
2022/06/15 11:05:51;;;;;;;4.10;3.70;;;32.40;99.90;;;;;;5134200;28;21026;-61
2022/06/15 11:08:20;;;;;;;6.37;4.20;;;32.50;99.90;;;;;;5126551;28;20477;-62
2022/06/15 11:10:52;;;;;;;5.10;4.30;;;31.20;99.90;;;;;;5116945;28;20908;-61
2022/06/15 11:13:41;;;;;;;4.77;4.03;;;31.00;99.90;;;;;;5117519;28;20489;-61
2022/06/15 11:19:10;;;;;;;5.50;3.90;;;31.20;99.90;;;;;;5118707;27;20453;-62
2022/06/15 11:21:42;;;;;;;8.53;3.80;;;30.70;99.90;;;;;;5140153;27;20584;-61
2022/06/15 11:24:26;;;;;;;5.87;4.50;;;31.50;99.90;;;;;;5134604;27;20470;-61
2022/06/15 11:26:59;;;;;;;4.23;3.83;;;32.10;99.90;;;;;;5121800;27;20715;-62
2022/06/15 11:29:44;;;;;;;4.20;3.20;;;32.20;99.90;;;;;;5133330;27;20466;-61
2022/06/15 11:32:38;;;;;;;5.17;3.73;;;32.60;99.90;;;;;;5130860;27;20490;-61
2022/06/15 11:35:35;;;;;;;4.30;3.20;;;32.80;99.90;;;;;;5134656;27;20458;-60
2022/06/15 11:38:17;;;;;;;4.03;3.20;;;31.80;99.90;;;;;;5138018;27;20454;-61
2022/06/15 11:40:50;;;;;;;3.93;3.30;;;32.10;99.90;;;;;;5139443;27;20454;-61
2022/06/15 11:43:20;;;;;;;4.43;3.20;;;32.30;99.90;;;;;;5139063;27;20462;-61
2022/06/15 11:46:10;;;;;;;4.63;3.73;;;33.00;99.90;;;;;;5138293;27;20456;-61
2022/06/15 11:48:47;;;;;;;5.47;3.63;;;33.50;99.90;;;;;;5138356;27;20450;-60
2022/06/15 11:51:42;;;;;;;3.60;3.30;;;33.00;99.90;;;;;;5139357;27;20544;-61
2022/06/15 11:54:19;;;;;;;4.20;3.57;;;32.70;99.90;;;;;;5140444;27;20801;-60
2022/06/15 11:56:52;;;;;;;3.93;3.57;;;32.90;99.90;;;;;;5124718;27;20955;-60
2022/06/15 11:59:31;;;;;;;4.47;3.90;;;33.30;99.90;;;;;;5121284;27;20459;-60
2022/06/15 12:02:08;;;;;;;3.83;3.30;;;32.70;99.90;;;;;;5120201;28;20462;-60
2022/06/15 12:05:16;;;;;;;4.80;3.27;;;33.00;99.90;;;;;;5120773;27;20557;-60
2022/06/15 12:07:56;;;;;;;4.00;3.57;;;33.00;99.90;;;;;;5118039;28;20501;-60
2022/06/15 12:10:44;;;;;;;3.70;2.90;;;32.40;99.90;;;;;;5133652;27;20816;-60
2022/06/15 12:13:21;;;;;;;7.07;3.83;;;32.60;99.90;;;;;;5137089;27;20490;-60
2022/06/15 12:15:55;;;;;;;4.33;3.50;;;32.80;99.90;;;;;;5131788;27;20909;-60
2022/06/15 12:18:41;;;;;;;3.80;3.43;;;32.80;99.90;;;;;;5124118;27;20467;-60
2022/06/15 12:21:15;;;;;;;3.70;3.30;;;33.10;99.90;;;;;;5121952;27;20482;-60
2022/06/15 12:23:51;;;;;;;4.70;3.40;;;33.60;99.90;;;;;;5127369;27;20454;-61
2022/06/15 12:26:31;;;;;;;4.67;3.70;;;34.00;99.90;;;;;;5138162;27;20890;-60
2022/06/15 12:29:08;;;;;;;6.40;3.77;;;34.20;99.90;;;;;;5138409;27;20573;-61
2022/06/15 12:31:56;;;;;;;4.75;3.83;;;34.40;99.90;;;;;;5130964;27;20196;-62
2022/06/15 12:34:34;;;;;;;5.20;4.00;;;33.90;99.90;;;;;;5137340;27;20655;-61
2022/06/15 12:37:09;;;;;;;5.77;4.37;;;32.80;99.90;;;;;;5137827;27;20450;-61
2022/06/15 12:39:47;;;;;;;6.80;3.70;;;32.40;99.90;;;;;;5138426;27;20510;-61
2022/06/15 12:42:18;;;;;;;3.60;3.30;;;31.10;99.90;;;;;;5134665;27;20905;-61
2022/06/15 12:45:00;;;;;;;6.80;4.60;;;32.10;99.90;;;;;;5135122;27;20461;-61
2022/06/15 12:47:29;;;;;;;6.73;4.00;;;32.80;99.90;;;;;;5137958;27;20454;-60
2022/06/15 12:50:18;;;;;;;8.63;4.90;;;33.20;99.90;;;;;;5138413;27;20514;-61
2022/06/15 12:52:57;;;;;;;4.63;3.37;;;33.60;99.90;;;;;;5132365;27;20478;-61
2022/06/15 12:55:36;;;;;;;5.23;3.00;;;33.80;99.90;;;;;;5138096;27;20882;-61
2022/06/15 12:58:15;;;;;;;4.93;4.53;;;33.30;99.90;;;;;;5137816;27;20457;-61
2022/06/15 13:00:48;;;;;;;4.30;3.57;;;31.80;99.90;;;;;;5134069;27;20870;-61
2022/06/15 13:03:34;;;;;;;4.97;4.23;;;32.70;99.90;;;;;;5135846;27;20458;-61
2022/06/15 13:06:23;;;;;;;6.40;3.47;;;33.20;99.90;;;;;;5134246;27;20450;-61
2022/06/15 13:09:18;;;;;;;4.67;3.43;;;33.60;99.90;;;;;;5137485;27;20892;-61
2022/06/15 13:12:01;;;;;;;4.40;3.50;;;33.50;99.90;;;;;;5137835;27;20784;-61
2022/06/15 13:14:32;;;;;;;4.10;3.33;;;31.30;99.90;;;;;;5137544;27;20480;-61
2022/06/15 13:17:07;;;;;;;5.00;4.20;;;30.30;99.90;;;;;;5134796;27;20458;-61
2022/06/15 13:19:39;;;;;;;6.03;3.90;;;30.60;99.90;;;;;;5136897;27;20489;-60
2022/06/15 13:22:16;;;;;;;4.50;4.07;;;29.60;99.90;;;;;;5137522;27;20547;-60
2022/06/15 13:24:56;;;;;;;4.90;3.77;;;29.50;99.90;;;;;;5136567;27;20454;-60
2022/06/15 13:27:33;;;;;;;4.23;3.83;;;30.60;99.90;;;;;;5134303;27;20781;-60
2022/06/15 13:30:26;;;;;;;6.97;3.70;;;30.50;99.90;;;;;;5137732;27;21029;-60
2022/06/15 13:33:00;;;;;;;6.67;4.67;;;29.50;99.90;;;;;;5116721;27;20837;-60